Time;durP1;ratioP1;P1;durP2;ratioP2;P2;SDS_P1;SDS_P2;PMS_P1;PMS_P2;Temp;Humidity;BMP_temperature;BMP_pressure;BME280_temperature;BME280_humidity;BME280_pressure;Samples;Min_cycle;Max_cycle;Signal;HPM_P1;HPM_P2
2022/03/13 00:00:45;;;;;;;9.67;7.37;;;1.40;30.60;;;-0.06;39.22;98094.16;5014315;28;20441;-79
2022/03/13 00:03:14;;;;;;;11.10;7.33;;;1.40;30.60;;;-0.08;39.87;98102.28;5000274;28;20789;-79
2022/03/13 00:05:47;;;;;;;9.27;7.20;;;1.40;31.00;;;-0.06;39.48;98096.81;5015761;28;20813;-79
2022/03/13 00:08:24;;;;;;;10.53;7.37;;;1.40;30.70;;;-0.09;40.02;98094.47;5013692;28;20451;-79
2022/03/13 00:10:57;;;;;;;10.43;6.83;;;1.40;30.60;;;-0.10;39.90;98092.78;5013435;28;20788;-79
2022/03/13 00:13:30;;;;;;;9.43;7.00;;;1.40;30.70;;;-0.12;39.83;98095.59;5013995;28;20443;-79
2022/03/13 00:15:59;;;;;;;7.70;6.93;;;1.40;30.70;;;-0.17;39.53;98084.56;5014088;28;20446;-79
2022/03/13 00:18:26;;;;;;;15.13;6.67;;;1.40;30.80;;;-0.22;39.48;98095.63;5015150;28;20937;-80
2022/03/13 00:20:53;;;;;;;9.60;6.80;;;1.30;30.70;;;-0.30;39.60;98096.34;5014155;28;20478;-78
2022/03/13 00:23:23;;;;;;;12.80;6.90;;;1.20;30.80;;;-0.32;39.65;98095.66;5015017;28;20498;-80
2022/03/13 00:25:50;;;;;;;11.97;7.30;;;1.20;30.70;;;-0.29;39.70;98090.06;5015398;28;20473;-82
2022/03/13 00:28:17;;;;;;;9.03;6.90;;;1.20;30.80;;;-0.74;39.93;98032.31;5013994;28;20550;-80
2022/03/13 00:30:45;;;;;;;8.87;6.60;;;1.20;30.80;;;-0.44;40.02;98086.19;5013321;28;20945;-81
2022/03/13 00:33:11;;;;;;;10.90;6.70;;;1.10;30.80;;;-0.46;40.09;98088.16;5015024;28;20438;-80
2022/03/13 00:35:39;;;;;;;9.47;6.60;;;1.00;31.10;;;-0.51;40.38;98085.09;5015118;28;20536;-81
2022/03/13 00:38:07;;;;;;;9.93;7.10;;;1.00;30.90;;;-0.47;40.46;98095.25;5015119;28;20442;-82
2022/03/13 00:40:37;;;;;;;8.73;7.10;;;1.00;31.00;;;-0.56;41.05;98093.47;5015020;28;20438;-80
2022/03/13 00:43:05;;;;;;;7.83;6.53;;;1.00;31.10;;;-0.66;41.06;98093.50;5015393;28;20905;-81
2022/03/13 00:45:32;;;;;;;9.63;7.27;;;0.90;31.10;;;-0.78;40.78;98099.94;5013198;28;20493;-81
2022/03/13 00:48:00;;;;;;;8.63;6.57;;;0.80;31.20;;;-0.86;41.69;98093.50;5015201;28;20476;-82
2022/03/13 00:50:27;;;;;;;9.37;7.13;;;0.70;31.30;;;-0.96;41.46;98100.66;5014788;28;20579;-81
2022/03/13 00:52:57;;;;;;;8.87;7.40;;;0.60;31.30;;;-1.00;41.90;98101.88;5013886;28;21014;-81
2022/03/13 00:55:24;;;;;;;9.50;6.97;;;0.50;31.40;;;-1.01;41.75;98100.19;5014631;28;20438;-80
2022/03/13 00:57:52;;;;;;;9.67;7.30;;;0.50;31.50;;;-1.02;42.04;98107.34;5013176;28;20485;-80
2022/03/13 01:00:19;;;;;;;10.13;7.37;;;0.40;31.60;;;-1.03;41.84;98108.31;5014003;28;20505;-79
2022/03/13 01:02:46;;;;;;;8.13;6.10;;;0.40;31.60;;;-1.08;42.45;98096.44;5014415;28;20442;-80
2022/03/13 01:05:23;;;;;;;8.33;7.03;;;0.50;31.70;;;-1.01;42.19;98102.84;5015587;28;20451;-79
2022/03/13 01:07:51;;;;;;;7.60;6.43;;;0.50;31.70;;;-0.95;41.79;98098.81;5013415;28;20455;-79
2022/03/13 01:10:18;;;;;;;10.33;7.10;;;0.50;31.60;;;-1.07;41.73;98098.94;5018124;28;20501;-80
2022/03/13 01:12:46;;;;;;;8.90;7.60;;;0.50;31.50;;;-1.12;42.10;98103.84;5018432;28;20530;-80
2022/03/13 01:15:15;;;;;;;10.97;6.50;;;0.50;31.60;;;-1.10;42.24;98101.06;5015850;28;20439;-80
2022/03/13 01:17:43;;;;;;;9.00;7.47;;;0.40;31.60;;;-1.07;42.10;98090.97;5014640;28;20478;-78
2022/03/13 01:20:18;;;;;;;10.97;7.10;;;0.50;31.60;;;-1.01;41.34;98092.25;5012215;28;20497;-79
2022/03/13 01:22:45;;;;;;;10.10;7.00;;;0.50;31.50;;;-0.94;41.27;98095.19;5014394;28;20434;-79
2022/03/13 01:25:13;;;;;;;8.53;7.03;;;0.60;31.50;;;-0.93;41.44;98086.25;5013863;28;20448;-79
2022/03/13 01:27:39;;;;;;;8.90;7.73;;;0.60;31.30;;;-0.99;41.12;98082.31;5013257;28;20800;-80
2022/03/13 01:30:08;;;;;;;9.03;6.43;;;0.60;31.30;;;-0.99;41.56;98087.63;5014040;28;20999;-81
2022/03/13 01:32:36;;;;;;;8.30;6.37;;;0.60;31.30;;;-1.01;41.25;98086.94;5014290;28;20441;-81
2022/03/13 01:35:04;;;;;;;9.10;6.43;;;0.60;31.30;;;-1.03;41.58;98086.25;5014006;28;20942;-81
2022/03/13 01:37:34;;;;;;;9.60;7.40;;;0.50;31.20;;;-1.06;41.75;98083.88;5012699;28;20854;-81
2022/03/13 01:40:06;;;;;;;10.10;7.33;;;0.50;31.30;;;-1.04;41.50;98089.88;5014015;28;20441;-81
2022/03/13 01:42:33;;;;;;;10.97;7.07;;;0.50;31.20;;;-1.13;41.59;98083.59;5013039;28;20444;-82
2022/03/13 01:45:00;;;;;;;15.27;7.33;;;0.50;31.20;;;-1.06;41.57;98075.94;5012401;28;20528;-81
2022/03/13 01:47:28;;;;;;;9.03;7.00;;;0.50;31.20;;;-1.09;41.84;98076.22;5013360;28;20459;-81
2022/03/13 01:49:57;;;;;;;8.60;6.60;;;0.50;31.30;;;-1.17;41.74;98069.78;5013870;28;20448;-81
2022/03/13 01:52:27;;;;;;;8.30;6.20;;;0.40;31.20;;;-1.15;41.36;98069.66;5012856;28;20545;-81
2022/03/13 01:54:55;;;;;;;9.40;6.37;;;0.40;31.20;;;-1.16;41.54;98071.44;5012868;28;20526;-81
2022/03/13 01:57:23;;;;;;;11.67;6.27;;;0.40;31.20;;;-1.13;41.72;98067.69;5013092;28;20509;-81
2022/03/13 01:59:53;;;;;;;9.90;8.10;;;0.40;31.20;;;-1.18;41.50;98067.28;5013777;28;20439;-80
2022/03/13 02:02:21;;;;;;;10.60;7.40;;;0.40;31.20;;;-1.28;41.55;98061.97;5012418;28;20794;-81
2022/03/13 02:04:53;;;;;;;11.23;6.93;;;0.30;31.20;;;-1.23;41.30;98064.19;5014047;28;20450;-82
2022/03/13 02:07:22;;;;;;;10.77;6.97;;;0.30;31.20;;;-1.26;41.44;98065.31;5013657;28;20468;-82
2022/03/13 02:09:50;;;;;;;10.87;7.10;;;0.30;31.30;;;-1.28;41.73;98067.28;5013771;28;20982;-79
2022/03/13 02:12:20;;;;;;;7.87;6.23;;;0.30;31.20;;;-1.30;42.10;98069.22;5013796;28;20520;-80
2022/03/13 02:14:47;;;;;;;8.77;6.53;;;0.30;31.10;;;-1.34;41.81;98071.31;5012557;28;20442;-78
2022/03/13 02:17:26;;;;;;;7.17;5.83;;;0.30;31.20;;;-1.35;41.57;98074.09;5013636;28;20842;-78
2022/03/13 02:19:55;;;;;;;10.93;5.97;;;0.20;31.10;;;-1.41;41.55;98069.34;5013574;28;20903;-77
2022/03/13 02:22:23;;;;;;;7.93;6.80;;;0.20;31.10;;;-1.40;41.74;98071.03;5014120;28;20526;-78
2022/03/13 02:24:53;;;;;;;7.23;5.70;;;0.20;31.20;;;-1.41;41.92;98066.72;5013501;28;21005;-79
2022/03/13 02:27:23;;;;;;;7.37;6.00;;;0.20;31.20;;;-1.46;41.93;98054.69;5014406;28;20495;-82
2022/03/13 02:29:50;;;;;;;11.33;7.80;;;0.10;31.20;;;-1.53;41.99;98053.56;5013881;28;20522;-81
2022/03/13 02:32:19;;;;;;;7.83;6.13;;;0.10;31.20;;;-1.52;42.25;98060.53;5010817;28;20516;-80
2022/03/13 02:34:47;;;;;;;8.33;6.90;;;0.10;31.30;;;-1.55;42.04;98066.13;5013590;28;20424;-80
2022/03/13 02:37:35;;;;;;;8.00;6.40;;;0.10;31.30;;;-1.56;41.96;98053.84;5014325;28;20534;-80
2022/03/13 02:40:06;;;;;;;8.53;7.13;;;0.10;31.30;;;-1.61;41.81;98048.09;5012173;28;20503;-81
2022/03/13 02:42:33;;;;;;;8.93;6.60;;;0.00;31.30;;;-1.61;41.98;98056.06;5016275;28;20482;-81
2022/03/13 02:45:00;;;;;;;9.63;6.30;;;0.00;31.20;;;-1.64;42.04;98058.97;5017093;28;20530;-82
2022/03/13 02:47:27;;;;;;;13.83;7.23;;;0.00;31.30;;;-1.71;42.45;98048.94;5017058;28;20498;-81
2022/03/13 02:49:54;;;;;;;12.13;7.33;;;-0.10;31.30;;;-1.72;42.12;98060.53;5017266;28;20463;-80
2022/03/13 02:52:21;;;;;;;8.77;6.17;;;-0.10;31.40;;;-1.76;42.84;98043.19;5015503;28;20437;-81
2022/03/13 02:54:48;;;;;;;9.53;5.53;;;-0.10;31.50;;;-1.78;42.57;98042.50;5017293;28;20466;-81
2022/03/13 02:57:17;;;;;;;9.70;6.70;;;-0.10;31.50;;;-1.82;43.05;98049.06;5015561;28;20545;-81
2022/03/13 02:59:44;;;;;;;9.83;6.73;;;-0.20;31.50;;;-1.83;42.88;98046.53;5016664;28;20861;-81
2022/03/13 03:02:11;;;;;;;11.20;6.60;;;-0.20;31.60;;;-1.84;42.60;98048.34;5017280;28;20464;-82
2022/03/13 03:04:38;;;;;;;7.57;6.60;;;-0.20;31.60;;;-1.95;43.08;98051.09;5015696;28;20503;-82
2022/03/13 03:07:06;;;;;;;7.93;6.97;;;-0.30;31.60;;;-1.89;43.19;98053.22;5015839;28;20957;-82
2022/03/13 03:09:35;;;;;;;10.67;7.23;;;-0.30;31.60;;;-2.34;43.06;97996.22;5016637;28;20525;-81
2022/03/13 03:12:06;;;;;;;8.33;6.57;;;-0.30;31.60;;;-2.16;43.11;98029.03;5017132;28;20523;-82
2022/03/13 03:14:35;;;;;;;7.87;5.93;;;-0.40;31.60;;;-2.09;43.25;98031.97;5017796;28;20442;-81
2022/03/13 03:17:04;;;;;;;10.50;6.80;;;-0.40;31.60;;;-2.04;43.06;98050.09;5019726;28;20441;-81
2022/03/13 03:19:31;;;;;;;10.60;6.33;;;-0.40;31.60;;;-2.15;43.51;98043.09;5018926;28;20449;-81
2022/03/13 03:21:59;;;;;;;7.70;5.83;;;-0.40;31.60;;;-2.06;43.51;98044.09;5016977;28;20528;-79
2022/03/13 03:24:27;;;;;;;10.00;6.37;;;-0.50;31.70;;;-2.13;43.26;98043.81;5019566;28;20474;-82
2022/03/13 03:26:55;;;;;;;9.27;6.90;;;-0.50;31.70;;;-2.18;43.61;98040.72;5018012;28;20956;-80
2022/03/13 03:29:22;;;;;;;9.90;6.53;;;-0.50;31.70;;;-2.17;43.90;98050.34;5017623;28;20502;-81
2022/03/13 03:31:51;;;;;;;9.30;6.57;;;-0.50;31.80;;;-2.15;43.89;98059.00;5016101;28;20864;-81
2022/03/13 03:34:21;;;;;;;8.83;6.90;;;-0.50;31.80;;;-2.17;43.57;98050.34;5016141;28;20538;-81
2022/03/13 03:36:51;;;;;;;8.77;6.83;;;-0.60;31.80;;;-2.18;43.65;98056.63;5016222;28;20506;-81
2022/03/13 03:39:20;;;;;;;8.80;6.10;;;-0.60;31.70;;;-2.24;43.97;98059.78;5016318;28;20450;-82
2022/03/13 03:41:50;;;;;;;10.47;6.13;;;-0.60;31.80;;;-2.28;43.57;98060.06;5014897;28;20541;-81
2022/03/13 03:44:18;;;;;;;7.57;5.93;;;-0.60;31.90;;;-2.26;43.49;98065.22;5014538;28;20522;-80
2022/03/13 03:46:46;;;;;;;11.37;6.83;;;-0.60;31.90;;;-2.29;43.85;98058.38;5015352;28;20453;-81
2022/03/13 03:49:15;;;;;;;7.70;6.40;;;-0.70;31.70;;;-2.48;43.71;98050.34;5014559;28;20433;-81
2022/03/13 03:51:43;;;;;;;9.43;6.70;;;-0.70;31.80;;;-2.38;44.15;98069.75;5014780;28;20467;-81
2022/03/13 03:54:11;;;;;;;10.20;6.73;;;-0.70;31.90;;;-2.37;43.93;98058.19;5016009;28;20532;-80
2022/03/13 03:56:39;;;;;;;8.90;6.17;;;-0.70;32.00;;;-2.43;43.85;98058.72;5015494;28;20976;-81
2022/03/13 03:59:06;;;;;;;7.77;6.23;;;-0.80;32.20;;;-2.81;44.08;97994.03;4998472;28;20853;-80
2022/03/13 04:01:38;;;;;;;9.40;7.20;;;-0.80;31.90;;;-2.44;44.12;98060.50;5014403;28;20442;-81
2022/03/13 04:04:07;;;;;;;11.90;6.60;;;-0.70;32.00;;;-2.45;44.16;98044.78;5014104;28;20484;-80
2022/03/13 04:06:37;;;;;;;9.90;7.00;;;-0.80;31.90;;;-2.88;44.05;97981.34;5016871;28;20445;-80
2022/03/13 04:09:05;;;;;;;8.13;6.20;;;-0.80;31.90;;;-2.45;44.31;98050.09;5022603;28;20467;-80
2022/03/13 04:11:32;;;;;;;5.90;5.30;;;-0.80;31.90;;;-2.47;44.25;98055.50;5018660;28;20433;-80
2022/03/13 04:13:59;;;;;;;7.83;6.10;;;-0.80;31.90;;;-2.51;44.24;98047.94;5016740;28;20520;-82
2022/03/13 04:16:26;;;;;;;8.70;6.03;;;-0.80;32.00;;;-2.50;44.24;98061.06;5014312;28;20544;-82
2022/03/13 04:18:54;;;;;;;11.17;5.40;;;-0.90;32.00;;;-2.51;44.43;98042.66;5016000;28;20538;-80
2022/03/13 04:21:23;;;;;;;10.03;7.13;;;-0.90;32.00;;;-2.53;44.10;98044.59;5016905;28;20476;-80
2022/03/13 04:23:53;;;;;;;9.57;6.10;;;-0.90;31.90;;;-2.67;44.67;98053.72;5018631;28;20435;-81
2022/03/13 04:26:20;;;;;;;9.17;6.80;;;-1.00;31.90;;;-2.59;44.30;98052.09;5017972;28;20604;-80
2022/03/13 04:28:49;;;;;;;12.47;6.63;;;-1.00;32.00;;;-2.59;44.48;98049.44;5017434;28;20475;-81
2022/03/13 04:31:16;;;;;;;10.10;6.50;;;-0.90;32.10;;;-2.60;44.73;98050.44;5018118;28;20444;-79
2022/03/13 04:33:43;;;;;;;8.73;7.10;;;-0.90;32.10;;;-2.67;44.83;98059.84;5015270;28;20475;-80
2022/03/13 04:36:13;;;;;;;7.83;6.00;;;-1.00;32.00;;;-2.71;45.18;98071.66;5015517;28;20445;-81
2022/03/13 04:38:40;;;;;;;10.40;7.23;;;-1.10;32.10;;;-2.83;45.06;98081.47;5015765;28;20454;-82
2022/03/13 04:41:09;;;;;;;7.57;5.93;;;-1.20;32.20;;;-2.94;45.29;98069.16;5016816;28;20449;-80
2022/03/13 04:43:37;;;;;;;9.13;5.97;;;-1.30;32.30;;;-3.10;46.04;98079.31;5016913;28;20525;-80
2022/03/13 04:46:05;;;;;;;7.60;5.10;;;-1.40;32.40;;;-2.99;46.22;98074.81;5015559;28;20439;-81
2022/03/13 04:48:34;;;;;;;6.30;5.70;;;-1.50;32.60;;;-2.92;45.41;98074.28;5013760;28;20504;-81
2022/03/13 04:51:02;;;;;;;9.27;6.37;;;-1.30;32.70;;;-2.82;45.25;98071.72;5015093;28;20480;-80
2022/03/13 04:53:30;;;;;;;9.43;6.13;;;-1.30;32.60;;;-2.87;45.59;98080.88;5013700;28;20468;-81
2022/03/13 04:55:57;;;;;;;8.37;6.37;;;-1.30;32.60;;;-2.87;45.41;98086.16;5013381;28;20531;-80
2022/03/13 04:58:25;;;;;;;8.43;6.43;;;-1.30;32.60;;;-2.97;45.92;98093.19;5013551;28;20440;-80
2022/03/13 05:00:53;;;;;;;9.57;6.50;;;-1.30;32.70;;;-2.96;45.68;98083.47;5014688;28;20432;-82
2022/03/13 05:03:20;;;;;;;7.73;6.33;;;-1.30;32.70;;;-2.89;45.69;98090.75;5014783;28;20470;-81
2022/03/13 05:05:47;;;;;;;7.70;6.17;;;-1.30;32.50;;;-2.86;45.32;98087.84;5014534;28;20988;-81
2022/03/13 05:08:15;;;;;;;9.20;6.20;;;-1.20;32.50;;;-2.89;45.15;98082.81;5014970;28;20499;-82
2022/03/13 05:10:43;;;;;;;12.27;6.77;;;-1.20;32.40;;;-2.83;45.01;98091.19;5014599;28;20435;-82
2022/03/13 05:13:12;;;;;;;12.60;6.87;;;-1.20;32.60;;;-2.89;45.15;98093.41;5012605;28;20524;-83
2022/03/13 05:15:42;;;;;;;10.43;6.70;;;-1.20;32.60;;;-2.89;45.23;98101.31;5009657;28;20510;-82
2022/03/13 05:18:09;;;;;;;9.77;6.43;;;-1.20;32.40;;;-2.88;45.15;98094.22;5010764;28;20499;-80
2022/03/13 05:20:36;;;;;;;6.63;5.93;;;-1.20;32.40;;;-2.81;45.19;98103.34;5014294;28;20441;-82
2022/03/13 05:23:05;;;;;;;8.43;5.70;;;-1.20;32.30;;;-2.84;45.04;98098.31;5013188;28;20527;-83
2022/03/13 05:25:32;;;;;;;8.70;6.47;;;-1.20;32.20;;;-2.81;44.96;98110.41;5014601;28;20443;-81
2022/03/13 05:27:59;;;;;;;8.47;6.23;;;-1.20;32.20;;;-2.94;45.21;98100.88;5014315;28;20462;-82
2022/03/13 05:30:27;;;;;;;10.70;6.00;;;-1.20;32.20;;;-2.83;44.87;98107.91;5013265;28;20496;-82
2022/03/13 05:32:56;;;;;;;9.10;6.30;;;-1.20;32.30;;;-2.83;45.29;98102.63;5014483;28;20465;-82
2022/03/13 05:35:24;;;;;;;9.07;6.90;;;-1.20;32.30;;;-2.86;45.17;98108.19;5014172;28;20526;-82
2022/03/13 05:37:53;;;;;;;9.10;6.37;;;-1.20;32.30;;;-2.94;45.26;98095.59;5014328;28;20443;-81
2022/03/13 05:40:24;;;;;;;7.63;5.87;;;-1.20;32.30;;;-2.81;45.35;98113.06;5012618;28;20448;-82
2022/03/13 05:42:55;;;;;;;17.40;7.13;;;-1.20;32.30;;;-2.75;44.69;98107.28;5013000;28;20506;-82
2022/03/13 05:45:25;;;;;;;8.40;6.17;;;-1.10;32.20;;;-2.71;44.92;98113.97;5014118;28;20456;-83
2022/03/13 05:47:56;;;;;;;11.13;7.00;;;-1.10;32.20;;;-2.81;44.85;98082.19;5014324;28;20499;-83
2022/03/13 05:50:26;;;;;;;8.40;6.30;;;-1.10;32.40;;;-2.71;44.49;98116.63;5014061;28;20460;-83
2022/03/13 05:52:56;;;;;;;8.77;6.40;;;-1.00;32.10;;;-2.65;44.29;98120.56;4994592;28;20985;-82
2022/03/13 05:55:25;;;;;;;7.23;5.80;;;-1.00;32.10;;;-2.62;44.07;98115.88;4994090;28;20442;-82
2022/03/13 05:57:54;;;;;;;9.30;6.60;;;-1.00;31.90;;;-2.62;44.51;98105.28;4994370;28;20457;-83
2022/03/13 06:00:23;;;;;;;9.30;6.63;;;-1.00;32.00;;;-2.63;44.23;98115.97;4994293;28;20472;-83
2022/03/13 06:02:50;;;;;;;9.30;6.90;;;-1.00;32.00;;;-2.56;44.20;98119.81;4994441;28;20943;-78
2022/03/13 06:05:22;;;;;;;9.40;6.87;;;-0.90;31.90;;;-2.59;44.30;98117.38;4993194;28;20448;-81
2022/03/13 06:07:51;;;;;;;8.00;6.67;;;-0.90;31.90;;;-2.57;44.14;98126.06;4997019;28;20452;-83
2022/03/13 06:10:18;;;;;;;12.30;6.20;;;-0.90;31.90;;;-2.50;44.37;98129.00;5012766;28;20448;-79
2022/03/13 06:12:45;;;;;;;10.57;6.60;;;-0.90;31.90;;;-2.46;43.90;98131.25;4997823;28;20431;-80
2022/03/13 06:15:14;;;;;;;8.10;6.73;;;-0.80;31.90;;;-2.46;43.77;98131.25;4996640;28;20521;-81
2022/03/13 06:17:43;;;;;;;8.60;6.50;;;-0.80;31.90;;;-2.35;43.68;98133.03;4997287;28;20498;-82
2022/03/13 06:20:14;;;;;;;11.27;6.50;;;-0.70;32.30;;;-2.39;43.89;98126.28;4997989;28;20435;-81
2022/03/13 06:22:46;;;;;;;8.50;7.10;;;-0.70;31.90;;;-2.35;44.04;98122.44;4997945;28;20458;-81
2022/03/13 06:25:14;;;;;;;11.27;7.60;;;-0.70;31.90;;;-2.33;43.97;98135.53;4998380;28;20470;-76
2022/03/13 06:27:42;;;;;;;12.10;6.40;;;-0.70;31.90;;;-2.26;43.62;98131.41;4997684;28;20531;-77
2022/03/13 06:30:13;;;;;;;9.73;5.97;;;-0.60;32.00;;;-2.25;43.22;98132.22;4998252;28;20836;-83
2022/03/13 06:32:42;;;;;;;7.77;6.33;;;-0.60;31.80;;;-2.17;42.99;98135.06;5014826;28;20962;-81
2022/03/13 06:35:10;;;;;;;9.70;6.77;;;-0.50;31.80;;;-2.03;43.00;98137.38;4999128;28;20429;-81
2022/03/13 06:37:38;;;;;;;9.27;7.07;;;-0.40;31.70;;;-2.01;42.88;98123.97;4997246;28;20509;-82
2022/03/13 06:40:10;;;;;;;8.27;6.47;;;-0.40;31.70;;;-1.83;42.55;98132.16;4997430;28;20446;-82
2022/03/13 06:42:38;;;;;;;12.27;6.70;;;-0.30;31.60;;;-1.72;42.18;98131.19;4997671;28;20448;-81
2022/03/13 06:45:10;;;;;;;8.30;6.87;;;-0.20;31.50;;;-1.76;42.27;98127.16;4997383;28;20545;-82
2022/03/13 06:47:38;;;;;;;13.03;7.10;;;-0.10;31.50;;;-1.69;42.28;98125.63;5000441;28;20444;-80
2022/03/13 06:50:07;;;;;;;9.07;6.40;;;-0.10;31.30;;;-1.72;42.03;98123.25;5000091;28;20620;-77
2022/03/13 06:52:34;;;;;;;9.10;7.27;;;0.00;31.30;;;-1.61;42.13;98136.41;4997970;28;20474;-82
2022/03/13 06:55:01;;;;;;;9.80;7.17;;;0.00;31.20;;;-1.45;41.32;98135.06;4997084;28;20444;-80
2022/03/13 06:57:29;;;;;;;8.93;6.30;;;0.10;31.20;;;-1.34;41.36;98142.03;4997320;28;20528;-76
2022/03/13 06:59:57;;;;;;;7.80;7.00;;;0.20;31.20;;;-1.25;40.89;98141.22;4995736;28;20976;-76
2022/03/13 07:02:25;;;;;;;6.97;6.27;;;0.30;31.00;;;-1.20;41.07;98143.47;4996073;28;20457;-77
2022/03/13 07:04:52;;;;;;;9.13;6.60;;;0.40;30.90;;;-1.06;41.01;98139.56;5013037;28;20452;-77
2022/03/13 07:07:19;;;;;;;8.43;6.60;;;0.50;31.00;;;-0.97;40.60;98137.91;5018768;28;20440;-76
2022/03/13 07:09:46;;;;;;;10.50;6.70;;;0.60;30.80;;;-0.84;40.44;98153.53;5000798;28;20475;-77
2022/03/13 07:12:13;;;;;;;9.30;6.40;;;0.70;30.80;;;-0.82;40.06;98141.81;4998372;28;20444;-77
2022/03/13 07:14:44;;;;;;;10.00;7.00;;;0.70;31.00;;;-0.99;39.53;98082.31;4996166;28;20928;-76
2022/03/13 07:17:11;;;;;;;8.57;6.53;;;0.80;30.60;;;-0.54;39.38;98143.75;4997097;28;20957;-77
2022/03/13 07:19:39;;;;;;;9.63;6.40;;;0.90;30.50;;;-0.43;39.57;98146.25;4996542;28;20539;-77
2022/03/13 07:22:07;;;;;;;8.00;6.67;;;1.10;30.50;;;-0.46;38.90;98149.19;4997004;28;20516;-76
2022/03/13 07:24:34;;;;;;;8.50;6.70;;;1.10;30.30;;;-0.41;39.06;98144.28;4995477;28;20436;-77
2022/03/13 07:27:01;;;;;;;11.27;7.33;;;1.20;30.30;;;-0.39;39.16;98142.34;4995910;28;20531;-77
2022/03/13 07:29:28;;;;;;;6.80;5.53;;;1.20;30.20;;;-0.20;38.25;98135.31;5011673;28;20477;-77
2022/03/13 07:31:56;;;;;;;9.73;6.63;;;1.30;30.20;;;0.01;38.65;98142.25;4995940;28;20521;-76
2022/03/13 07:34:23;;;;;;;10.27;6.67;;;1.40;30.20;;;-0.14;37.74;98140.06;4995342;28;20452;-76
2022/03/13 07:36:51;;;;;;;11.47;7.00;;;1.50;30.00;;;-0.05;37.77;98135.69;4996111;28;20845;-77
2022/03/13 07:39:18;;;;;;;9.07;7.10;;;1.50;30.00;;;0.04;38.21;98137.50;4995051;28;20526;-78
2022/03/13 07:41:45;;;;;;;9.93;6.60;;;1.60;30.00;;;0.21;37.39;98132.38;4995125;28;20447;-76
2022/03/13 07:44:12;;;;;;;8.90;7.83;;;1.70;30.00;;;0.42;37.89;98129.50;4996581;28;20451;-76
2022/03/13 07:46:39;;;;;;;8.57;6.70;;;1.90;30.10;;;0.06;37.54;98092.16;4996151;28;20534;-78
2022/03/13 07:49:08;;;;;;;10.40;6.80;;;1.90;30.00;;;0.50;36.87;98134.06;4996201;28;20481;-77
2022/03/13 07:51:35;;;;;;;9.30;7.93;;;2.00;29.90;;;0.64;37.03;98136.22;4995398;28;20495;-77
2022/03/13 07:54:02;;;;;;;11.17;7.37;;;2.10;29.90;;;0.79;37.42;98131.22;4996168;28;20831;-77
2022/03/13 07:56:30;;;;;;;9.60;6.97;;;2.30;30.00;;;0.94;36.96;98133.38;4994593;28;20875;-75
2022/03/13 07:58:56;;;;;;;10.77;7.13;;;2.40;30.00;;;1.20;36.47;98132.63;4996019;28;20460;-78
2022/03/13 08:01:24;;;;;;;10.80;7.47;;;2.50;30.20;;;1.26;36.40;98126.69;4996234;28;20447;-78
2022/03/13 08:03:51;;;;;;;9.33;6.70;;;2.70;30.00;;;1.35;35.69;98131.09;4994490;28;20527;-79
2022/03/13 08:06:19;;;;;;;9.33;6.87;;;2.80;29.80;;;1.51;35.57;98130.38;4995952;28;20448;-78
2022/03/13 08:08:46;;;;;;;10.63;7.37;;;2.90;29.70;;;1.44;35.38;98128.47;4995736;28;20522;-79
2022/03/13 08:11:13;;;;;;;7.90;7.10;;;3.00;29.60;;;1.59;35.42;98126.94;4994423;28;20443;-77
2022/03/13 08:13:40;;;;;;;8.53;7.03;;;3.00;29.60;;;1.76;35.43;98121.75;4995762;28;20471;-78
2022/03/13 08:16:07;;;;;;;9.17;6.67;;;3.20;29.70;;;1.91;35.08;98124.66;4995674;28;20527;-77
2022/03/13 08:18:35;;;;;;;9.17;6.30;;;3.30;29.70;;;1.98;34.69;98123.88;4994667;28;20530;-78
2022/03/13 08:21:02;;;;;;;10.40;7.37;;;3.40;29.40;;;2.20;33.72;98105.66;4995229;28;20441;-78
2022/03/13 08:23:30;;;;;;;8.37;7.20;;;3.60;29.30;;;2.47;33.88;98124.28;4993996;28;20502;-76
2022/03/13 08:25:57;;;;;;;7.63;5.33;;;3.80;29.30;;;2.77;33.14;98114.84;5011181;28;20540;-78
2022/03/13 08:28:24;;;;;;;7.27;5.23;;;4.00;29.10;;;2.92;31.21;98117.72;4995574;28;20467;-78
2022/03/13 08:30:51;;;;;;;8.30;6.03;;;4.30;28.30;;;3.13;31.26;98123.63;4995018;28;20535;-77
2022/03/13 08:33:18;;;;;;;8.60;6.07;;;4.50;28.20;;;3.29;30.80;98118.28;4995405;28;20432;-77
2022/03/13 08:35:45;;;;;;;7.60;6.30;;;4.60;28.00;;;3.39;30.02;98124.28;4994664;28;20790;-77
2022/03/13 08:38:12;;;;;;;7.20;6.30;;;4.70;27.70;;;3.44;30.54;98118.44;4995326;28;20847;-76
2022/03/13 08:40:41;;;;;;;7.33;6.37;;;4.80;27.70;;;3.58;30.04;98111.59;4993646;28;20946;-80
2022/03/13 08:43:08;;;;;;;9.00;5.70;;;4.90;27.60;;;3.67;29.83;98110.56;4995414;28;20468;-80
2022/03/13 08:45:35;;;;;;;7.70;6.00;;;5.00;27.60;;;3.65;29.44;98109.91;4996901;28;20853;-80
2022/03/13 08:48:01;;;;;;;7.13;5.93;;;5.10;27.80;;;3.83;29.84;98108.88;5010608;28;20445;-80
2022/03/13 08:50:29;;;;;;;7.83;5.73;;;5.20;27.50;;;3.92;30.48;98107.88;4994115;28;20975;-80
2022/03/13 08:52:58;;;;;;;8.13;5.60;;;5.30;27.60;;;4.38;30.24;98101.03;4995468;28;20454;-83
2022/03/13 08:55:25;;;;;;;10.70;6.67;;;5.60;28.80;;;4.43;29.30;98101.34;4995326;28;20526;-80
2022/03/13 08:57:54;;;;;;;8.63;5.97;;;5.70;28.00;;;4.44;28.81;98084.28;4995535;28;20467;-77
2022/03/13 09:00:21;;;;;;;7.50;5.90;;;5.80;27.50;;;4.49;28.17;98092.63;5011161;28;20876;-79
2022/03/13 09:02:50;;;;;;;6.77;5.33;;;5.80;27.20;;;4.53;28.62;98082.41;4995895;28;20482;-78
2022/03/13 09:05:17;;;;;;;6.90;5.63;;;5.90;27.40;;;4.72;28.50;98099.06;4997009;28;20507;-81
2022/03/13 09:07:44;;;;;;;6.80;5.43;;;6.00;27.20;;;4.97;27.80;98091.69;4995376;28;20507;-74
2022/03/13 09:10:11;;;;;;;12.83;7.27;;;6.20;27.30;;;5.13;28.07;98092.59;4993499;28;20464;-73
2022/03/13 09:12:40;;;;;;;7.23;5.47;;;6.40;27.50;;;5.12;27.13;98082.91;4998651;28;20448;-71
2022/03/13 09:15:09;;;;;;;8.27;5.90;;;6.50;27.10;;;5.02;28.01;98085.81;4995346;28;20494;-75
2022/03/13 09:17:36;;;;;;;9.00;5.93;;;6.40;27.00;;;5.22;26.92;98099.53;5010110;28;20445;-77
2022/03/13 09:20:05;;;;;;;7.63;6.00;;;6.50;27.00;;;5.45;27.62;98101.38;4993126;28;20444;-79
2022/03/13 09:22:32;;;;;;;6.50;5.80;;;6.60;27.20;;;5.20;27.09;98093.53;5009625;28;20495;-79
2022/03/13 09:24:59;;;;;;;7.77;6.60;;;6.60;26.90;;;5.36;27.03;98098.75;4995217;28;20449;-79
2022/03/13 09:27:27;;;;;;;7.43;5.87;;;6.70;27.10;;;5.48;26.63;98093.81;5001417;28;20468;-79
2022/03/13 09:29:56;;;;;;;6.87;6.07;;;6.70;27.00;;;5.61;26.91;98090.53;5008510;28;20492;-76
2022/03/13 09:32:25;;;;;;;7.17;6.30;;;6.80;27.10;;;5.73;26.34;98098.13;5018842;28;20448;-79
2022/03/13 09:34:52;;;;;;;6.57;5.73;;;7.00;27.10;;;5.81;27.35;98095.34;5013374;28;20518;-79
2022/03/13 09:37:19;;;;;;;8.33;6.13;;;7.10;27.20;;;5.84;27.25;98105.72;5016661;28;20471;-79
2022/03/13 09:39:46;;;;;;;7.30;5.80;;;7.10;27.00;;;5.92;26.44;98100.28;5005575;28;20475;-76
2022/03/13 09:42:13;;;;;;;6.70;5.93;;;7.20;27.00;;;5.95;26.80;98086.50;5026218;28;20455;-78
2022/03/13 09:44:40;;;;;;;6.87;6.13;;;7.30;27.10;;;6.03;27.00;98099.00;5014474;28;20530;-80
2022/03/13 09:47:10;;;;;;;7.27;5.50;;;7.30;27.00;;;5.89;26.61;98089.91;5007744;28;20478;-77
2022/03/13 09:49:42;;;;;;;9.83;6.80;;;7.30;26.90;;;5.96;26.25;98096.19;5006710;28;20499;-76
2022/03/13 09:52:09;;;;;;;8.33;5.97;;;7.30;26.80;;;6.08;26.73;98101.16;5004120;28;20474;-79
2022/03/13 09:54:36;;;;;;;6.67;6.00;;;7.40;26.90;;;6.05;26.47;98093.47;5013167;28;20438;-80
2022/03/13 09:57:05;;;;;;;8.33;6.40;;;7.40;26.90;;;6.32;26.24;98094.66;5006283;28;20541;-77
2022/03/13 09:59:32;;;;;;;8.03;6.70;;;7.50;27.00;;;6.26;26.21;98083.84;5006846;28;20512;-80
2022/03/13 10:01:59;;;;;;;9.13;6.20;;;7.50;26.90;;;6.56;26.35;98086.50;5010476;28;20514;-76
2022/03/13 10:04:26;;;;;;;7.10;5.83;;;7.70;27.00;;;6.64;26.27;98089.09;5019275;28;20534;-80
2022/03/13 10:07:10;;;;;;;8.80;6.53;;;7.90;27.00;;;6.73;26.01;98087.13;5014212;28;20459;-78
2022/03/13 10:09:40;;;;;;;6.93;6.23;;;7.90;27.10;;;6.85;25.48;98084.75;5006449;28;20469;-78
2022/03/13 10:12:11;;;;;;;8.40;6.93;;;8.10;27.10;;;6.71;26.15;98089.97;5006815;28;20447;-78
2022/03/13 10:14:40;;;;;;;7.63;5.90;;;8.00;26.80;;;6.93;25.98;98076.59;5013214;28;20440;-78
2022/03/13 10:17:29;;;;;;;7.53;6.33;;;8.10;27.10;;;6.90;26.13;98075.13;5006505;28;20463;-77
2022/03/13 10:20:12;;;;;;;6.53;5.83;;;8.10;27.00;;;7.07;25.54;98072.19;5004394;28;20467;-77
2022/03/13 10:22:41;;;;;;;7.50;6.73;;;8.20;27.10;;;7.13;25.50;98075.97;5006635;28;20454;-80
2022/03/13 10:25:08;;;;;;;8.10;6.43;;;8.30;27.00;;;7.20;25.77;98061.56;5012180;28;20490;-80
2022/03/13 10:27:36;;;;;;;6.87;6.23;;;8.40;27.00;;;7.11;25.94;98061.88;5004632;28;20443;-77